sensor_id;sensor_type;location;lat;lon;timestamp;temperature;humidity
52267;DHT22;38223;50.940;4.034;2023-04-25T00:02:20;10.70;99.90
52267;DHT22;38223;50.940;4.034;2023-04-25T00:04:52;10.90;99.90
52267;DHT22;38223;50.940;4.034;2023-04-25T00:07:25;10.90;99.90
52267;DHT22;38223;50.940;4.034;2023-04-25T00:09:55;11.00;99.90
52267;DHT22;38223;50.940;4.034;2023-04-25T00:12:29;11.10;99.90
52267;DHT22;38223;50.940;4.034;2023-04-25T00:15:01;10.90;99.90
52267;DHT22;38223;50.940;4.034;2023-04-25T00:17:33;10.80;99.90
52267;DHT22;38223;50.940;4.034;2023-04-25T00:20:07;10.70;99.90
52267;DHT22;38223;50.940;4.034;2023-04-25T00:22:42;11.00;99.90
52267;DHT22;38223;50.940;4.034;2023-04-25T00:25:11;11.10;99.90
52267;DHT22;38223;50.940;4.034;2023-04-25T00:27:47;11.10;99.90
52267;DHT22;38223;50.940;4.034;2023-04-25T00:30:15;11.00;99.90
52267;DHT22;38223;50.940;4.034;2023-04-25T00:32:46;10.90;99.90
52267;DHT22;38223;50.940;4.034;2023-04-25T00:35:16;10.80;99.90
52267;DHT22;38223;50.940;4.034;2023-04-25T00:37:43;10.70;99.90
52267;DHT22;38223;50.940;4.034;2023-04-25T00:40:12;10.60;99.90
52267;DHT22;38223;50.940;4.034;2023-04-25T00:42:44;10.60;99.90
52267;DHT22;38223;50.940;4.034;2023-04-25T00:45:18;10.80;99.90
52267;DHT22;38223;50.940;4.034;2023-04-25T00:47:51;10.70;99.90
52267;DHT22;38223;50.940;4.034;2023-04-25T00:50:21;10.80;99.90
52267;DHT22;38223;50.940;4.034;2023-04-25T00:52:56;10.70;99.90
52267;DHT22;38223;50.940;4.034;2023-04-25T00:55:27;10.60;99.90
52267;DHT22;38223;50.940;4.034;2023-04-25T00:57:55;10.80;99.90
52267;DHT22;38223;50.940;4.034;2023-04-25T01:00:24;10.90;99.90
52267;DHT22;38223;50.940;4.034;2023-04-25T01:02:55;11.00;99.90
52267;DHT22;38223;50.940;4.034;2023-04-25T01:05:24;10.80;99.90
52267;DHT22;38223;50.940;4.034;2023-04-25T01:07:53;10.80;99.90
52267;DHT22;38223;50.940;4.034;2023-04-25T01:10:21;10.70;99.90
52267;DHT22;38223;50.940;4.034;2023-04-25T01:12:51;10.60;99.90
52267;DHT22;38223;50.940;4.034;2023-04-25T01:15:20;10.50;99.90
52267;DHT22;38223;50.940;4.034;2023-04-25T01:17:52;10.30;99.90
52267;DHT22;38223;50.940;4.034;2023-04-25T01:20:22;10.30;99.90
52267;DHT22;38223;50.940;4.034;2023-04-25T01:22:55;10.20;99.90
52267;DHT22;38223;50.940;4.034;2023-04-25T01:25:26;10.30;99.90
52267;DHT22;38223;50.940;4.034;2023-04-25T01:27:59;10.50;99.90
52267;DHT22;38223;50.940;4.034;2023-04-25T01:30:32;10.50;99.90
52267;DHT22;38223;50.940;4.034;2023-04-25T01:33:03;10.40;99.90
52267;DHT22;38223;50.940;4.034;2023-04-25T01:35:44;10.30;99.90
52267;DHT22;38223;50.940;4.034;2023-04-25T01:41:03;10.30;99.90
52267;DHT22;38223;50.940;4.034;2023-04-25T01:43:36;10.50;99.90
52267;DHT22;38223;50.940;4.034;2023-04-25T01:46:06;10.40;99.90
52267;DHT22;38223;50.940;4.034;2023-04-25T01:48:35;10.50;99.90
52267;DHT22;38223;50.940;4.034;2023-04-25T01:51:07;10.40;99.90
52267;DHT22;38223;50.940;4.034;2023-04-25T01:53:41;10.50;99.90
52267;DHT22;38223;50.940;4.034;2023-04-25T01:56:11;10.60;99.90
52267;DHT22;38223;50.940;4.034;2023-04-25T01:58:43;10.40;99.90
52267;DHT22;38223;50.940;4.034;2023-04-25T02:01:13;10.30;99.90
52267;DHT22;38223;50.940;4.034;2023-04-25T02:03:42;10.30;99.90
52267;DHT22;38223;50.940;4.034;2023-04-25T02:06:10;10.40;99.90
52267;DHT22;38223;50.940;4.034;2023-04-25T02:08:45;10.50;99.90
52267;DHT22;38223;50.940;4.034;2023-04-25T02:11:14;10.40;99.90
52267;DHT22;38223;50.940;4.034;2023-04-25T02:13:48;10.30;99.90
52267;DHT22;38223;50.940;4.034;2023-04-25T02:16:19;10.10;99.90
52267;DHT22;38223;50.940;4.034;2023-04-25T02:18:49;10.10;99.90
52267;DHT22;38223;50.940;4.034;2023-04-25T02:21:20;10.10;99.90
52267;DHT22;38223;50.940;4.034;2023-04-25T02:23:49;10.00;99.90
52267;DHT22;38223;50.940;4.034;2023-04-25T02:26:23;9.90;99.90
52267;DHT22;38223;50.940;4.034;2023-04-25T02:28:53;10.10;99.90
52267;DHT22;38223;50.940;4.034;2023-04-25T02:31:24;10.10;99.90
52267;DHT22;38223;50.940;4.034;2023-04-25T02:33:53;9.80;99.90
52267;DHT22;38223;50.940;4.034;2023-04-25T02:36:28;9.50;99.90
52267;DHT22;38223;50.940;4.034;2023-04-25T02:39:00;9.60;99.90
52267;DHT22;38223;50.940;4.034;2023-04-25T02:41:34;9.50;99.90
52267;DHT22;38223;50.940;4.034;2023-04-25T02:44:04;9.60;99.90
52267;DHT22;38223;50.940;4.034;2023-04-25T02:46:38;9.40;99.90
52267;DHT22;38223;50.940;4.034;2023-04-25T02:49:11;9.40;99.90
52267;DHT22;38223;50.940;4.034;2023-04-25T02:51:44;9.20;99.90
52267;DHT22;38223;50.940;4.034;2023-04-25T02:54:13;9.00;99.90
52267;DHT22;38223;50.940;4.034;2023-04-25T02:56:46;9.00;99.90
52267;DHT22;38223;50.940;4.034;2023-04-25T02:59:14;8.90;99.90
52267;DHT22;38223;50.940;4.034;2023-04-25T03:01:46;8.90;99.90
52267;DHT22;38223;50.940;4.034;2023-04-25T03:04:19;8.80;99.90
52267;DHT22;38223;50.940;4.034;2023-04-25T03:06:50;8.80;99.90
52267;DHT22;38223;50.940;4.034;2023-04-25T03:09:21;8.90;99.90
52267;DHT22;38223;50.940;4.034;2023-04-25T03:11:50;8.70;99.90
52267;DHT22;38223;50.940;4.034;2023-04-25T03:14:22;8.60;99.90
52267;DHT22;38223;50.940;4.034;2023-04-25T03:16:52;8.60;99.90
52267;DHT22;38223;50.940;4.034;2023-04-25T03:19:20;8.70;99.90
52267;DHT22;38223;50.940;4.034;2023-04-25T03:21:51;8.70;99.90
52267;DHT22;38223;50.940;4.034;2023-04-25T03:24:19;8.80;99.90
52267;DHT22;38223;50.940;4.034;2023-04-25T03:26:54;8.90;99.90
52267;DHT22;38223;50.940;4.034;2023-04-25T03:29:23;8.80;99.90
52267;DHT22;38223;50.940;4.034;2023-04-25T03:31:55;8.80;99.90
52267;DHT22;38223;50.940;4.034;2023-04-25T03:34:26;8.80;99.90
52267;DHT22;38223;50.940;4.034;2023-04-25T03:36:59;9.00;99.90
52267;DHT22;38223;50.940;4.034;2023-04-25T03:39:30;9.00;99.90
52267;DHT22;38223;50.940;4.034;2023-04-25T03:42:03;8.90;99.90
52267;DHT22;38223;50.940;4.034;2023-04-25T03:44:32;8.80;99.90
52267;DHT22;38223;50.940;4.034;2023-04-25T03:47:00;8.80;99.90
52267;DHT22;38223;50.940;4.034;2023-04-25T03:49:28;9.00;99.90
52267;DHT22;38223;50.940;4.034;2023-04-25T03:52:00;9.00;99.90
52267;DHT22;38223;50.940;4.034;2023-04-25T03:57:17;9.10;99.90
52267;DHT22;38223;50.940;4.034;2023-04-25T03:59:46;9.00;99.90
52267;DHT22;38223;50.940;4.034;2023-04-25T04:02:20;9.20;99.90
52267;DHT22;38223;50.940;4.034;2023-04-25T04:04:49;9.00;99.90
52267;DHT22;38223;50.940;4.034;2023-04-25T04:07:25;8.70;99.90
52267;DHT22;38223;50.940;4.034;2023-04-25T04:09:55;8.70;99.90
52267;DHT22;38223;50.940;4.034;2023-04-25T04:12:25;8.70;99.90
52267;DHT22;38223;50.940;4.034;2023-04-25T04:14:55;8.70;99.90
52267;DHT22;38223;50.940;4.034;2023-04-25T04:17:25;8.70;99.90
52267;DHT22;38223;50.940;4.034;2023-04-25T04:19:55;8.40;99.90
52267;DHT22;38223;50.940;4.034;2023-04-25T04:22:26;8.40;99.90
52267;DHT22;38223;50.940;4.034;2023-04-25T04:25:00;8.30;99.90
52267;DHT22;38223;50.940;4.034;2023-04-25T04:27:29;8.30;99.90
52267;DHT22;38223;50.940;4.034;2023-04-25T04:30:03;8.20;99.90
52267;DHT22;38223;50.940;4.034;2023-04-25T04:32:35;8.00;99.90
52267;DHT22;38223;50.940;4.034;2023-04-25T04:35:08;8.00;99.90
52267;DHT22;38223;50.940;4.034;2023-04-25T04:37:38;8.10;99.90
52267;DHT22;38223;50.940;4.034;2023-04-25T04:40:07;8.20;99.90
52267;DHT22;38223;50.940;4.034;2023-04-25T04:42:37;8.50;99.90
52267;DHT22;38223;50.940;4.034;2023-04-25T04:45:15;8.60;99.90
52267;DHT22;38223;50.940;4.034;2023-04-25T04:47:48;8.70;99.90
52267;DHT22;38223;50.940;4.034;2023-04-25T04:50:16;8.90;99.90
52267;DHT22;38223;50.940;4.034;2023-04-25T04:52:44;9.00;99.90
52267;DHT22;38223;50.940;4.034;2023-04-25T04:55:12;9.10;99.90
52267;DHT22;38223;50.940;4.034;2023-04-25T04:57:44;8.90;99.90
52267;DHT22;38223;50.940;4.034;2023-04-25T05:00:14;8.90;99.90
52267;DHT22;38223;50.940;4.034;2023-04-25T05:02:45;9.00;99.90
52267;DHT22;38223;50.940;4.034;2023-04-25T05:05:20;9.10;99.90
52267;DHT22;38223;50.940;4.034;2023-04-25T05:07:56;9.20;99.90
52267;DHT22;38223;50.940;4.034;2023-04-25T05:10:31;9.00;99.90
52267;DHT22;38223;50.940;4.034;2023-04-25T05:13:00;9.20;99.90
52267;DHT22;38223;50.940;4.034;2023-04-25T05:15:35;9.20;99.90
52267;DHT22;38223;50.940;4.034;2023-04-25T05:18:09;9.10;99.90
52267;DHT22;38223;50.940;4.034;2023-04-25T05:20:41;9.10;99.90
52267;DHT22;38223;50.940;4.034;2023-04-25T05:23:11;9.30;99.90
52267;DHT22;38223;50.940;4.034;2023-04-25T05:25:40;9.20;99.90
52267;DHT22;38223;50.940;4.034;2023-04-25T05:28:14;9.30;99.90
52267;DHT22;38223;50.940;4.034;2023-04-25T05:30:42;9.40;99.90
52267;DHT22;38223;50.940;4.034;2023-04-25T05:33:11;9.50;99.90
52267;DHT22;38223;50.940;4.034;2023-04-25T05:35:44;9.40;99.90
52267;DHT22;38223;50.940;4.034;2023-04-25T05:38:16;9.50;99.90
52267;DHT22;38223;50.940;4.034;2023-04-25T05:40:54;9.30;99.90
52267;DHT22;38223;50.940;4.034;2023-04-25T05:43:26;9.20;99.90
52267;DHT22;38223;50.940;4.034;2023-04-25T05:46:00;9.20;99.90
52267;DHT22;38223;50.940;4.034;2023-04-25T05:48:30;9.30;99.90
52267;DHT22;38223;50.940;4.034;2023-04-25T05:51:02;9.40;99.90
52267;DHT22;38223;50.940;4.034;2023-04-25T05:53:35;9.50;99.90
52267;DHT22;38223;50.940;4.034;2023-04-25T05:56:07;9.60;99.90
52267;DHT22;38223;50.940;4.034;2023-04-25T05:58:38;9.40;99.90
52267;DHT22;38223;50.940;4.034;2023-04-25T06:01:11;9.30;99.90
52267;DHT22;38223;50.940;4.034;2023-04-25T06:03:44;9.10;99.90
52267;DHT22;38223;50.940;4.034;2023-04-25T06:06:32;9.10;99.90
52267;DHT22;38223;50.940;4.034;2023-04-25T06:09:05;9.10;99.90
52267;DHT22;38223;50.940;4.034;2023-04-25T06:11:37;9.20;99.90
52267;DHT22;38223;50.940;4.034;2023-04-25T06:14:09;9.30;99.90
52267;DHT22;38223;50.940;4.034;2023-04-25T06:16:38;9.10;99.90
52267;DHT22;38223;50.940;4.034;2023-04-25T06:19:12;9.00;99.90
52267;DHT22;38223;50.940;4.034;2023-04-25T06:21:45;8.90;99.90
52267;DHT22;38223;50.940;4.034;2023-04-25T06:24:19;9.20;99.90
52267;DHT22;38223;50.940;4.034;2023-04-25T06:26:49;9.30;99.90
52267;DHT22;38223;50.940;4.034;2023-04-25T06:29:17;9.10;99.90
52267;DHT22;38223;50.940;4.034;2023-04-25T06:31:47;9.00;99.90
52267;DHT22;38223;50.940;4.034;2023-04-25T06:34:16;9.30;99.90
52267;DHT22;38223;50.940;4.034;2023-04-25T06:36:47;9.60;99.90
52267;DHT22;38223;50.940;4.034;2023-04-25T06:39:21;9.70;99.90
52267;DHT22;38223;50.940;4.034;2023-04-25T06:41:54;9.50;99.90
52267;DHT22;38223;50.940;4.034;2023-04-25T06:44:27;9.40;99.90
52267;DHT22;38223;50.940;4.034;2023-04-25T06:46:56;9.30;99.90
52267;DHT22;38223;50.940;4.034;2023-04-25T06:49:26;9.40;99.90
52267;DHT22;38223;50.940;4.034;2023-04-25T06:51:54;9.40;99.90
52267;DHT22;38223;50.940;4.034;2023-04-25T06:54:26;9.20;99.90
52267;DHT22;38223;50.940;4.034;2023-04-25T06:56:56;9.30;99.90
52267;DHT22;38223;50.940;4.034;2023-04-25T06:59:23;9.20;99.90
52267;DHT22;38223;50.940;4.034;2023-04-25T07:01:54;9.10;99.90
52267;DHT22;38223;50.940;4.034;2023-04-25T07:04:28;9.30;99.90
52267;DHT22;38223;50.940;4.034;2023-04-25T07:06:57;9.40;99.90
52267;DHT22;38223;50.940;4.034;2023-04-25T07:09:26;9.50;99.90
52267;DHT22;38223;50.940;4.034;2023-04-25T07:11:59;9.60;99.90
52267;DHT22;38223;50.940;4.034;2023-04-25T07:14:31;9.80;99.90
52267;DHT22;38223;50.940;4.034;2023-04-25T07:17:00;9.50;99.90
52267;DHT22;38223;50.940;4.034;2023-04-25T07:19:31;9.50;99.90
52267;DHT22;38223;50.940;4.034;2023-04-25T07:22:04;9.50;99.90
52267;DHT22;38223;50.940;4.034;2023-04-25T07:24:35;9.40;99.90
52267;DHT22;38223;50.940;4.034;2023-04-25T07:27:04;9.50;99.90
52267;DHT22;38223;50.940;4.034;2023-04-25T07:29:33;9.40;99.90
52267;DHT22;38223;50.940;4.034;2023-04-25T07:32:04;9.50;99.90
52267;DHT22;38223;50.940;4.034;2023-04-25T07:34:38;9.70;99.90
52267;DHT22;38223;50.940;4.034;2023-04-25T07:37:07;9.80;99.90
52267;DHT22;38223;50.940;4.034;2023-04-25T07:39:36;9.90;99.90
52267;DHT22;38223;50.940;4.034;2023-04-25T07:42:04;10.00;99.90
52267;DHT22;38223;50.940;4.034;2023-04-25T07:44:37;9.60;99.90
52267;DHT22;38223;50.940;4.034;2023-04-25T07:47:11;9.70;99.90
52267;DHT22;38223;50.940;4.034;2023-04-25T07:49:42;9.90;99.90
52267;DHT22;38223;50.940;4.034;2023-04-25T07:52:14;10.00;99.90
52267;DHT22;38223;50.940;4.034;2023-04-25T07:54:44;10.00;99.90
52267;DHT22;38223;50.940;4.034;2023-04-25T07:57:17;10.10;99.90
52267;DHT22;38223;50.940;4.034;2023-04-25T07:59:49;10.00;99.90
52267;DHT22;38223;50.940;4.034;2023-04-25T08:02:23;10.10;99.90
52267;DHT22;38223;50.940;4.034;2023-04-25T08:04:53;10.30;99.90
52267;DHT22;38223;50.940;4.034;2023-04-25T08:07:22;10.20;99.90
52267;DHT22;38223;50.940;4.034;2023-04-25T08:09:50;10.40;99.90
52267;DHT22;38223;50.940;4.034;2023-04-25T08:12:17;10.60;99.90
52267;DHT22;38223;50.940;4.034;2023-04-25T08:14:54;10.60;99.90
52267;DHT22;38223;50.940;4.034;2023-04-25T08:17:24;10.50;99.90
52267;DHT22;38223;50.940;4.034;2023-04-25T08:19:55;10.40;99.90
52267;DHT22;38223;50.940;4.034;2023-04-25T08:22:25;10.50;99.90
52267;DHT22;38223;50.940;4.034;2023-04-25T08:24:54;10.50;99.90
52267;DHT22;38223;50.940;4.034;2023-04-25T08:27:33;10.30;99.90
52267;DHT22;38223;50.940;4.034;2023-04-25T08:30:04;10.20;99.90
52267;DHT22;38223;50.940;4.034;2023-04-25T08:32:37;10.10;99.90
52267;DHT22;38223;50.940;4.034;2023-04-25T08:35:09;10.00;99.90
52267;DHT22;38223;50.940;4.034;2023-04-25T08:37:39;10.20;99.90
52267;DHT22;38223;50.940;4.034;2023-04-25T08:40:13;10.40;99.90
52267;DHT22;38223;50.940;4.034;2023-04-25T08:42:44;10.50;99.90
52267;DHT22;38223;50.940;4.034;2023-04-25T08:45:18;10.60;99.90
52267;DHT22;38223;50.940;4.034;2023-04-25T08:47:48;10.60;99.90
52267;DHT22;38223;50.940;4.034;2023-04-25T08:50:22;10.60;99.90
52267;DHT22;38223;50.940;4.034;2023-04-25T08:52:55;10.60;99.90
52267;DHT22;38223;50.940;4.034;2023-04-25T08:55:26;10.40;99.90
52267;DHT22;38223;50.940;4.034;2023-04-25T08:57:58;10.40;99.90
52267;DHT22;38223;50.940;4.034;2023-04-25T09:00:27;10.50;99.90
52267;DHT22;38223;50.940;4.034;2023-04-25T09:03:00;10.70;99.90
52267;DHT22;38223;50.940;4.034;2023-04-25T09:05:36;10.80;99.90
52267;DHT22;38223;50.940;4.034;2023-04-25T09:08:02;11.00;99.90
52267;DHT22;38223;50.940;4.034;2023-04-25T09:10:35;11.00;99.90
52267;DHT22;38223;50.940;4.034;2023-04-25T09:13:13;10.50;99.90
52267;DHT22;38223;50.940;4.034;2023-04-25T09:15:52;10.00;99.90
52267;DHT22;38223;50.940;4.034;2023-04-25T09:18:32;9.80;99.90
52267;DHT22;38223;50.940;4.034;2023-04-25T09:21:10;9.90;99.90
52267;DHT22;38223;50.940;4.034;2023-04-25T09:23:47;10.00;99.90
52267;DHT22;38223;50.940;4.034;2023-04-25T09:26:22;10.50;99.90
52267;DHT22;38223;50.940;4.034;2023-04-25T09:29:07;10.70;99.90
52267;DHT22;38223;50.940;4.034;2023-04-25T09:31:41;10.70;99.90
52267;DHT22;38223;50.940;4.034;2023-04-25T09:34:12;10.50;99.90
52267;DHT22;38223;50.940;4.034;2023-04-25T09:36:45;10.10;99.90
52267;DHT22;38223;50.940;4.034;2023-04-25T09:39:18;10.10;99.90
52267;DHT22;38223;50.940;4.034;2023-04-25T09:41:49;10.30;99.90
52267;DHT22;38223;50.940;4.034;2023-04-25T09:44:22;10.30;99.90
52267;DHT22;38223;50.940;4.034;2023-04-25T09:46:50;10.30;99.90
52267;DHT22;38223;50.940;4.034;2023-04-25T09:49:22;10.40;99.90
52267;DHT22;38223;50.940;4.034;2023-04-25T09:52:01;10.50;99.90
52267;DHT22;38223;50.940;4.034;2023-04-25T09:54:34;10.60;99.90
52267;DHT22;38223;50.940;4.034;2023-04-25T09:57:11;11.10;99.90
52267;DHT22;38223;50.940;4.034;2023-04-25T09:59:46;11.40;99.90
52267;DHT22;38223;50.940;4.034;2023-04-25T10:02:24;11.10;99.90
52267;DHT22;38223;50.940;4.034;2023-04-25T10:04:56;10.80;99.90
52267;DHT22;38223;50.940;4.034;2023-04-25T10:07:38;10.80;99.90
52267;DHT22;38223;50.940;4.034;2023-04-25T10:10:17;10.40;99.90
52267;DHT22;38223;50.940;4.034;2023-04-25T10:12:53;10.00;99.90
52267;DHT22;38223;50.940;4.034;2023-04-25T10:15:22;9.40;99.90
52267;DHT22;38223;50.940;4.034;2023-04-25T10:18:02;9.00;99.90
52267;DHT22;38223;50.940;4.034;2023-04-25T10:20:31;9.00;99.90
52267;DHT22;38223;50.940;4.034;2023-04-25T10:23:13;9.10;99.90
52267;DHT22;38223;50.940;4.034;2023-04-25T10:25:44;9.20;99.90
52267;DHT22;38223;50.940;4.034;2023-04-25T10:28:17;9.30;99.90
52267;DHT22;38223;50.940;4.034;2023-04-25T10:31:03;9.20;99.90
52267;DHT22;38223;50.940;4.034;2023-04-25T10:33:40;9.20;99.90
52267;DHT22;38223;50.940;4.034;2023-04-25T10:36:25;9.10;99.90
52267;DHT22;38223;50.940;4.034;2023-04-25T10:38:58;9.20;99.90
52267;DHT22;38223;50.940;4.034;2023-04-25T10:41:31;9.50;99.90
52267;DHT22;38223;50.940;4.034;2023-04-25T10:44:13;9.60;99.90
52267;DHT22;38223;50.940;4.034;2023-04-25T10:46:46;9.70;99.90
52267;DHT22;38223;50.940;4.034;2023-04-25T10:49:35;9.50;99.90
52267;DHT22;38223;50.940;4.034;2023-04-25T10:52:27;9.50;99.90
52267;DHT22;38223;50.940;4.034;2023-04-25T10:54:58;9.60;99.90
52267;DHT22;38223;50.940;4.034;2023-04-25T10:57:44;9.60;99.90
52267;DHT22;38223;50.940;4.034;2023-04-25T11:00:19;9.70;99.90
52267;DHT22;38223;50.940;4.034;2023-04-25T11:02:59;9.90;99.90
52267;DHT22;38223;50.940;4.034;2023-04-25T11:05:33;10.10;99.90
52267;DHT22;38223;50.940;4.034;2023-04-25T11:08:09;10.00;99.90
52267;DHT22;38223;50.940;4.034;2023-04-25T11:10:37;10.00;99.90
52267;DHT22;38223;50.940;4.034;2023-04-25T11:13:11;9.90;99.90
52267;DHT22;38223;50.940;4.034;2023-04-25T11:15:40;10.20;99.90
52267;DHT22;38223;50.940;4.034;2023-04-25T11:18:10;10.20;99.90
52267;DHT22;38223;50.940;4.034;2023-04-25T11:20:38;10.40;99.90
52267;DHT22;38223;50.940;4.034;2023-04-25T11:23:08;10.40;99.90
52267;DHT22;38223;50.940;4.034;2023-04-25T11:25:41;10.40;99.90
52267;DHT22;38223;50.940;4.034;2023-04-25T11:28:10;10.30;99.90
52267;DHT22;38223;50.940;4.034;2023-04-25T11:30:47;10.50;99.90
52267;DHT22;38223;50.940;4.034;2023-04-25T11:33:14;10.60;99.90
52267;DHT22;38223;50.940;4.034;2023-04-25T11:35:43;10.90;99.90
52267;DHT22;38223;50.940;4.034;2023-04-25T11:38:14;11.10;99.90
52267;DHT22;38223;50.940;4.034;2023-04-25T11:41:03;10.90;99.90
52267;DHT22;38223;50.940;4.034;2023-04-25T11:43:43;10.60;99.90
52267;DHT22;38223;50.940;4.034;2023-04-25T11:46:25;11.00;99.90
52267;DHT22;38223;50.940;4.034;2023-04-25T11:49:12;11.10;99.90
52267;DHT22;38223;50.940;4.034;2023-04-25T11:51:43;11.00;99.90
52267;DHT22;38223;50.940;4.034;2023-04-25T11:54:12;11.20;99.90
52267;DHT22;38223;50.940;4.034;2023-04-25T11:56:44;11.40;99.90
52267;DHT22;38223;50.940;4.034;2023-04-25T11:59:22;11.80;99.90
52267;DHT22;38223;50.940;4.034;2023-04-25T12:02:02;11.80;99.90
52267;DHT22;38223;50.940;4.034;2023-04-25T12:04:40;11.80;99.90
52267;DHT22;38223;50.940;4.034;2023-04-25T12:07:10;12.10;99.90
52267;DHT22;38223;50.940;4.034;2023-04-25T12:09:50;12.20;99.90
52267;DHT22;38223;50.940;4.034;2023-04-25T12:12:21;12.10;99.90
52267;DHT22;38223;50.940;4.034;2023-04-25T12:14:54;12.00;99.90
52267;DHT22;38223;50.940;4.034;2023-04-25T12:17:23;12.00;99.90
52267;DHT22;38223;50.940;4.034;2023-04-25T12:20:05;11.90;99.90
52267;DHT22;38223;50.940;4.034;2023-04-25T12:22:43;11.90;99.90
52267;DHT22;38223;50.940;4.034;2023-04-25T12:25:41;11.90;99.90
52267;DHT22;38223;50.940;4.034;2023-04-25T12:28:20;11.80;99.90
52267;DHT22;38223;50.940;4.034;2023-04-25T12:31:06;11.70;99.90
52267;DHT22;38223;50.940;4.034;2023-04-25T12:33:39;12.00;99.90
52267;DHT22;38223;50.940;4.034;2023-04-25T12:36:09;12.10;99.90
52267;DHT22;38223;50.940;4.034;2023-04-25T12:38:43;11.70;99.90
52267;DHT22;38223;50.940;4.034;2023-04-25T12:41:12;11.20;99.90
52267;DHT22;38223;50.940;4.034;2023-04-25T12:43:41;11.10;99.90
52267;DHT22;38223;50.940;4.034;2023-04-25T12:46:13;11.10;99.90
52267;DHT22;38223;50.940;4.034;2023-04-25T12:48:47;11.00;99.90
52267;DHT22;38223;50.940;4.034;2023-04-25T12:51:18;10.90;99.90
52267;DHT22;38223;50.940;4.034;2023-04-25T12:53:49;10.90;99.90
52267;DHT22;38223;50.940;4.034;2023-04-25T12:56:21;11.00;99.90
52267;DHT22;38223;50.940;4.034;2023-04-25T12:58:50;11.30;99.90
52267;DHT22;38223;50.940;4.034;2023-04-25T13:01:22;11.60;99.90
52267;DHT22;38223;50.940;4.034;2023-04-25T13:03:56;11.80;99.90
52267;DHT22;38223;50.940;4.034;2023-04-25T13:06:27;11.90;99.90
52267;DHT22;38223;50.940;4.034;2023-04-25T13:08:59;12.10;99.90
52267;DHT22;38223;50.940;4.034;2023-04-25T13:11:28;12.30;99.90
52267;DHT22;38223;50.940;4.034;2023-04-25T13:13:56;12.30;99.90
52267;DHT22;38223;50.940;4.034;2023-04-25T13:16:25;12.40;99.90
52267;DHT22;38223;50.940;4.034;2023-04-25T13:18:56;12.40;99.90
52267;DHT22;38223;50.940;4.034;2023-04-25T13:21:26;12.60;99.90
52267;DHT22;38223;50.940;4.034;2023-04-25T13:23:56;12.60;99.90
52267;DHT22;38223;50.940;4.034;2023-04-25T13:26:27;12.70;99.90
52267;DHT22;38223;50.940;4.034;2023-04-25T13:29:04;12.80;99.90
52267;DHT22;38223;50.940;4.034;2023-04-25T13:31:32;12.70;99.90
52267;DHT22;38223;50.940;4.034;2023-04-25T13:34:07;12.50;99.90
52267;DHT22;38223;50.940;4.034;2023-04-25T13:36:39;12.30;99.90
52267;DHT22;38223;50.940;4.034;2023-04-25T13:39:08;12.00;99.90
52267;DHT22;38223;50.940;4.034;2023-04-25T13:41:39;11.80;99.90
52267;DHT22;38223;50.940;4.034;2023-04-25T13:44:08;11.90;99.90
52267;DHT22;38223;50.940;4.034;2023-04-25T13:46:35;12.10;99.90
52267;DHT22;38223;50.940;4.034;2023-04-25T13:49:05;12.00;99.90
52267;DHT22;38223;50.940;4.034;2023-04-25T13:51:39;12.00;99.90
52267;DHT22;38223;50.940;4.034;2023-04-25T13:54:09;11.90;99.90
52267;DHT22;38223;50.940;4.034;2023-04-25T13:56:42;12.00;99.90
52267;DHT22;38223;50.940;4.034;2023-04-25T13:59:11;12.10;99.90
52267;DHT22;38223;50.940;4.034;2023-04-25T14:01:39;12.40;99.90
52267;DHT22;38223;50.940;4.034;2023-04-25T14:04:08;12.40;99.90
52267;DHT22;38223;50.940;4.034;2023-04-25T14:06:35;12.40;99.90
52267;DHT22;38223;50.940;4.034;2023-04-25T14:09:04;12.40;99.90
52267;DHT22;38223;50.940;4.034;2023-04-25T14:14:21;12.70;99.90
52267;DHT22;38223;50.940;4.034;2023-04-25T14:16:50;12.50;99.90
52267;DHT22;38223;50.940;4.034;2023-04-25T14:19:23;12.20;99.90
52267;DHT22;38223;50.940;4.034;2023-04-25T14:21:55;12.20;99.90
52267;DHT22;38223;50.940;4.034;2023-04-25T14:24:27;12.50;99.90
52267;DHT22;38223;50.940;4.034;2023-04-25T14:26:56;12.70;99.90
52267;DHT22;38223;50.940;4.034;2023-04-25T14:29:25;13.00;99.90
52267;DHT22;38223;50.940;4.034;2023-04-25T14:32:04;13.00;99.90
52267;DHT22;38223;50.940;4.034;2023-04-25T14:34:31;13.20;99.80
52267;DHT22;38223;50.940;4.034;2023-04-25T14:37:01;13.10;99.90
52267;DHT22;38223;50.940;4.034;2023-04-25T14:39:32;13.20;99.90
52267;DHT22;38223;50.940;4.034;2023-04-25T14:42:03;13.30;99.70
52267;DHT22;38223;50.940;4.034;2023-04-25T14:44:31;13.20;98.10
52267;DHT22;38223;50.940;4.034;2023-04-25T14:46:59;13.20;98.30
52267;DHT22;38223;50.940;4.034;2023-04-25T14:49:27;13.30;97.60
52267;DHT22;38223;50.940;4.034;2023-04-25T14:51:55;13.10;97.30
52267;DHT22;38223;50.940;4.034;2023-04-25T14:54:24;13.30;98.10
52267;DHT22;38223;50.940;4.034;2023-04-25T14:56:54;12.90;99.80
52267;DHT22;38223;50.940;4.034;2023-04-25T14:59:23;12.50;99.50
52267;DHT22;38223;50.940;4.034;2023-04-25T15:01:53;12.00;99.90
52267;DHT22;38223;50.940;4.034;2023-04-25T15:04:21;11.80;99.90
52267;DHT22;38223;50.940;4.034;2023-04-25T15:06:49;11.50;99.90
52267;DHT22;38223;50.940;4.034;2023-04-25T15:09:19;11.30;99.90
52267;DHT22;38223;50.940;4.034;2023-04-25T15:12:08;11.70;99.90
52267;DHT22;38223;50.940;4.034;2023-04-25T15:14:39;11.60;99.90
52267;DHT22;38223;50.940;4.034;2023-04-25T15:17:12;11.40;99.90
52267;DHT22;38223;50.940;4.034;2023-04-25T15:19:42;11.20;99.90
52267;DHT22;38223;50.940;4.034;2023-04-25T15:22:13;11.10;99.90
52267;DHT22;38223;50.940;4.034;2023-04-25T15:24:46;11.00;99.90
52267;DHT22;38223;50.940;4.034;2023-04-25T15:27:15;10.90;99.90
52267;DHT22;38223;50.940;4.034;2023-04-25T15:29:45;11.00;99.90
52267;DHT22;38223;50.940;4.034;2023-04-25T15:32:16;11.30;99.90
52267;DHT22;38223;50.940;4.034;2023-04-25T15:34:50;11.20;99.90
52267;DHT22;38223;50.940;4.034;2023-04-25T15:37:18;12.50;98.60
52267;DHT22;38223;50.940;4.034;2023-04-25T15:40:00;12.80;97.20
52267;DHT22;38223;50.940;4.034;2023-04-25T15:42:22;12.50;97.50
52267;DHT22;38223;50.940;4.034;2023-04-25T15:44:50;12.10;97.80
52267;DHT22;38223;50.940;4.034;2023-04-25T15:47:20;12.00;98.30
52267;DHT22;38223;50.940;4.034;2023-04-25T15:49:50;11.50;98.70
52267;DHT22;38223;50.940;4.034;2023-04-25T15:52:20;11.70;99.30
52267;DHT22;38223;50.940;4.034;2023-04-25T15:54:49;11.30;98.90
52267;DHT22;38223;50.940;4.034;2023-04-25T15:57:19;11.10;99.70
52267;DHT22;38223;50.940;4.034;2023-04-25T15:59:53;10.90;99.80
52267;DHT22;38223;50.940;4.034;2023-04-25T16:02:24;11.10;99.90
52267;DHT22;38223;50.940;4.034;2023-04-25T16:05:01;11.50;99.90
52267;DHT22;38223;50.940;4.034;2023-04-25T16:10:10;11.70;99.90
52267;DHT22;38223;50.940;4.034;2023-04-25T16:12:45;11.80;99.80
52267;DHT22;38223;50.940;4.034;2023-04-25T16:15:18;11.60;99.90
52267;DHT22;38223;50.940;4.034;2023-04-25T16:17:48;11.70;99.90
52267;DHT22;38223;50.940;4.034;2023-04-25T16:20:17;11.50;99.90